Terminal Aerodrome Forecast
Issued by NWS Tampa Bay Area, FL

Home | Current Version | Previous Version | Text Only | Print | Product List | Glossary Off
Versions: 1 2 3 4 5 6 7 8 9 10 11 12 13

000
FTUS42 KTBW 210651 AAA
TAFFMY
TAF AMD
KFMY 210651Z 2107/2206 26006KT P6SM VCSH SCT020 BKN250
      TEMPO 2107/2109 3SM SHRA BKN015
     FM211000 VRB03KT P6SM VCSH SCT015 BKN080
     FM211400 28008KT P6SM VCSH SCT025 BKN080
     FM220000 01004KT P6SM OVC025=

USA.gov is the U.S. government's official web portal to all federal, state and local government web resources and services.